PGT66TQ LTFJ-LTCN
Flight info
| Callsign | PGT66TQ |
|---|---|
| Flight time | 1h 10m |
| Altitude | 35000 |
| Route | VICEN T57 VEVUD UT341 BAG UA17 POGEN |
| Aircraft | A320/M-SDE3FGHIRWY/LB1 |
Departure
| Time | 2026-05-06 12:46 |
|---|---|
| Airport | Istanbul Sabiha Gökçen International Airport (LTFJ) |
Arrival
| Time | 2026-05-06 13:56 |
|---|---|
| Airport | Kahramanmaraş Airport (LTCN) |
| Time | Latitude | Longitude | Altitude | Speed | Heading |
|---|---|---|---|---|---|
| 2026-05-06 12:41 | 40.90416 | 29.31349 | 311 ft | 17 kts | 245° |
| 2026-05-06 12:41 | 40.90362 | 29.31195 | 311 ft | 19 kts | 245° |
| 2026-05-06 12:41 | 40.90301 | 29.31030 | 311 ft | 18 kts | 243° |
| 2026-05-06 12:41 | 40.90262 | 29.30926 | 311 ft | 12 kts | 243° |
| 2026-05-06 12:42 | 40.90189 | 29.30888 | 311 ft | 14 kts | 156° |
| 2026-05-06 12:42 | 40.90090 | 29.30938 | 311 ft | 17 kts | 178° |
| 2026-05-06 12:42 | 40.90026 | 29.30812 | 311 ft | 18 kts | 245° |
| 2026-05-06 12:42 | 40.89967 | 29.30652 | 311 ft | 20 kts | 244° |
| 2026-05-06 12:43 | 40.89902 | 29.30476 | 310 ft | 22 kts | 244° |
| 2026-05-06 12:43 | 40.89833 | 29.30285 | 310 ft | 24 kts | 244° |
| 2026-05-06 12:43 | 40.89757 | 29.30082 | 310 ft | 25 kts | 243° |
| 2026-05-06 12:43 | 40.89677 | 29.29870 | 307 ft | 26 kts | 245° |
| 2026-05-06 12:44 | 40.89599 | 29.29653 | 304 ft | 27 kts | 244° |
| 2026-05-06 12:44 | 40.89517 | 29.29428 | 303 ft | 26 kts | 244° |
| 2026-05-06 12:44 | 40.89453 | 29.29275 | 304 ft | 15 kts | 222° |
| 2026-05-06 12:44 | 40.89348 | 29.29284 | 302 ft | 17 kts | 157° |
| 2026-05-06 12:45 | 40.89279 | 29.29351 | 301 ft | 7 kts | 97° |
| 2026-05-06 12:45 | 40.89283 | 29.29369 | 301 ft | 0 kts | 63° |
| 2026-05-06 12:45 | 40.89340 | 29.29518 | 305 ft | 53 kts | 64° |
| 2026-05-06 12:46 | 40.89606 | 29.30249 | 310 ft | 120 kts | 64° |
| 2026-05-06 12:46 | 40.90052 | 29.31454 | 317 ft | 170 kts | 65° |
| 2026-05-06 12:46 | 40.90586 | 29.32897 | 851 ft | 175 kts | 65° |
| 2026-05-06 12:46 | 40.90968 | 29.34396 | 1579 ft | 178 kts | 88° |
| 2026-05-06 12:47 | 40.90686 | 29.36083 | 1980 ft | 201 kts | 112° |
| 2026-05-06 12:47 | 40.90112 | 29.37881 | 2329 ft | 226 kts | 112° |
| 2026-05-06 12:47 | 40.89465 | 29.39896 | 2801 ft | 250 kts | 112° |
| 2026-05-06 12:47 | 40.88758 | 29.42102 | 3441 ft | 267 kts | 111° |
| 2026-05-06 12:48 | 40.88036 | 29.44391 | 4430 ft | 271 kts | 111° |
| 2026-05-06 12:48 | 40.87311 | 29.46707 | 5442 ft | 274 kts | 111° |
| 2026-05-06 12:48 | 40.86572 | 29.49045 | 6409 ft | 278 kts | 111° |
| 2026-05-06 12:48 | 40.85824 | 29.51427 | 7271 ft | 282 kts | 111° |
| 2026-05-06 12:49 | 40.85060 | 29.53845 | 8135 ft | 288 kts | 111° |
| 2026-05-06 12:49 | 40.84283 | 29.56310 | 9011 ft | 293 kts | 111° |
| 2026-05-06 12:49 | 40.83486 | 29.58828 | 9874 ft | 299 kts | 111° |
| 2026-05-06 12:49 | 40.82669 | 29.61417 | 10410 ft | 317 kts | 111° |
| 2026-05-06 12:50 | 40.81792 | 29.64197 | 10712 ft | 340 kts | 111° |
| 2026-05-06 12:50 | 40.80862 | 29.67144 | 11255 ft | 352 kts | 111° |
| 2026-05-06 12:50 | 40.79905 | 29.70155 | 12028 ft | 358 kts | 111° |
| 2026-05-06 12:50 | 40.78936 | 29.73204 | 12787 ft | 362 kts | 110° |
| 2026-05-06 12:51 | 40.77957 | 29.76288 | 13560 ft | 367 kts | 110° |
| 2026-05-06 12:51 | 40.76978 | 29.79378 | 14260 ft | 371 kts | 110° |
| 2026-05-06 12:51 | 40.75978 | 29.82524 | 14947 ft | 374 kts | 110° |
| 2026-05-06 12:51 | 40.74966 | 29.85710 | 15670 ft | 377 kts | 111° |
| 2026-05-06 12:52 | 40.73946 | 29.88914 | 16378 ft | 380 kts | 111° |
| 2026-05-06 12:52 | 40.72916 | 29.92148 | 17064 ft | 384 kts | 111° |
| 2026-05-06 12:52 | 40.71873 | 29.95403 | 17729 ft | 388 kts | 111° |
| 2026-05-06 12:52 | 40.70822 | 29.98693 | 18388 ft | 392 kts | 111° |
| 2026-05-06 12:53 | 40.69752 | 30.02019 | 18933 ft | 396 kts | 111° |
| 2026-05-06 12:53 | 40.68676 | 30.05375 | 19507 ft | 399 kts | 111° |
| 2026-05-06 12:53 | 40.67591 | 30.08765 | 20078 ft | 403 kts | 111° |
| 2026-05-06 12:53 | 40.66494 | 30.12171 | 20655 ft | 406 kts | 111° |
| 2026-05-06 12:54 | 40.65381 | 30.15612 | 21203 ft | 409 kts | 111° |
| 2026-05-06 12:54 | 40.64261 | 30.19080 | 21740 ft | 413 kts | 111° |
| 2026-05-06 12:54 | 40.63138 | 30.22577 | 22279 ft | 416 kts | 111° |
| 2026-05-06 12:54 | 40.61997 | 30.26099 | 22818 ft | 420 kts | 111° |
| 2026-05-06 12:55 | 40.60859 | 30.29598 | 23329 ft | 423 kts | 111° |
| 2026-05-06 12:55 | 40.59680 | 30.33222 | 23792 ft | 428 kts | 111° |
| 2026-05-06 12:55 | 40.58510 | 30.36832 | 24240 ft | 430 kts | 111° |
| 2026-05-06 12:55 | 40.57347 | 30.40414 | 24688 ft | 433 kts | 111° |
| 2026-05-06 12:56 | 40.56160 | 30.44063 | 25108 ft | 436 kts | 111° |
| 2026-05-06 12:56 | 40.54961 | 30.47747 | 25524 ft | 439 kts | 111° |
| 2026-05-06 12:56 | 40.52861 | 30.55606 | 26390 ft | 443 kts | 101° |
| 2026-05-06 12:57 | 40.52155 | 30.59552 | 26805 ft | 445 kts | 101° |
| 2026-05-06 12:57 | 40.51453 | 30.63530 | 27213 ft | 448 kts | 101° |
| 2026-05-06 12:57 | 40.50739 | 30.67535 | 27618 ft | 451 kts | 101° |
| 2026-05-06 12:57 | 40.50021 | 30.71555 | 28021 ft | 453 kts | 101° |
| 2026-05-06 12:58 | 40.49232 | 30.75579 | 28420 ft | 457 kts | 105° |
| 2026-05-06 12:58 | 40.48269 | 30.79573 | 28818 ft | 460 kts | 105° |
| 2026-05-06 12:58 | 40.47590 | 30.82386 | 29085 ft | 462 kts | 105° |
| 2026-05-06 12:58 | 40.46626 | 30.86424 | 29440 ft | 464 kts | 105° |
| 2026-05-06 12:59 | 40.45664 | 30.90496 | 29798 ft | 467 kts | 105° |
| 2026-05-06 12:59 | 40.44698 | 30.94576 | 30146 ft | 469 kts | 105° |
| 2026-05-06 12:59 | 40.43722 | 30.98688 | 30435 ft | 472 kts | 105° |
| 2026-05-06 12:59 | 40.42738 | 31.02822 | 30688 ft | 476 kts | 105° |
| 2026-05-06 13:00 | 40.41742 | 31.06975 | 30964 ft | 478 kts | 105° |
| 2026-05-06 13:00 | 40.40745 | 31.11145 | 31311 ft | 478 kts | 105° |
| 2026-05-06 13:00 | 40.39742 | 31.15307 | 31713 ft | 478 kts | 105° |
| 2026-05-06 13:00 | 40.38745 | 31.19452 | 32109 ft | 477 kts | 105° |
| 2026-05-06 13:01 | 40.37855 | 31.23573 | 32512 ft | 474 kts | 100° |
| 2026-05-06 13:01 | 40.37170 | 31.27805 | 32922 ft | 474 kts | 99° |
| 2026-05-06 13:01 | 40.36493 | 31.32032 | 33277 ft | 474 kts | 99° |
| 2026-05-06 13:01 | 40.35806 | 31.36261 | 33657 ft | 474 kts | 99° |
| 2026-05-06 13:02 | 40.35121 | 31.40481 | 34049 ft | 473 kts | 99° |
| 2026-05-06 13:02 | 40.34433 | 31.44713 | 34386 ft | 473 kts | 99° |
| 2026-05-06 13:02 | 40.33737 | 31.48925 | 34699 ft | 473 kts | 100° |
| 2026-05-06 13:02 | 40.33047 | 31.53135 | 35001 ft | 473 kts | 99° |
| 2026-05-06 13:03 | 40.32362 | 31.57356 | 35096 ft | 473 kts | 99° |
| 2026-05-06 13:03 | 40.30968 | 31.65761 | 35099 ft | 471 kts | 99° |
| 2026-05-06 13:04 | 40.29575 | 31.74154 | 35102 ft | 471 kts | 100° |
| 2026-05-06 13:04 | 40.28186 | 31.82546 | 35105 ft | 472 kts | 99° |
| 2026-05-06 13:05 | 40.26769 | 31.90942 | 35100 ft | 472 kts | 100° |
| 2026-05-06 13:05 | 40.25030 | 31.99257 | 35097 ft | 473 kts | 103° |
| 2026-05-06 13:06 | 40.23219 | 32.07541 | 35103 ft | 473 kts | 103° |
| 2026-05-06 13:06 | 40.21421 | 32.15828 | 35085 ft | 474 kts | 103° |
| 2026-05-06 13:07 | 40.19598 | 32.24128 | 35076 ft | 475 kts | 103° |
| 2026-05-06 13:07 | 40.17794 | 32.32383 | 35074 ft | 475 kts | 103° |
| 2026-05-06 13:08 | 40.15975 | 32.40696 | 35075 ft | 475 kts | 103° |
| 2026-05-06 13:08 | 40.14131 | 32.49005 | 35076 ft | 476 kts | 103° |
| 2026-05-06 13:09 | 40.12289 | 32.57325 | 35076 ft | 476 kts | 103° |
| 2026-05-06 13:09 | 40.10430 | 32.65643 | 35085 ft | 477 kts | 103° |
| 2026-05-06 13:10 | 40.08571 | 32.73968 | 35071 ft | 478 kts | 103° |
| 2026-05-06 13:10 | 40.06098 | 32.82032 | 35069 ft | 482 kts | 120° |
| 2026-05-06 13:11 | 40.02011 | 32.88998 | 35103 ft | 485 kts | 129° |
| 2026-05-06 13:11 | 39.97711 | 32.95781 | 35088 ft | 485 kts | 128° |
| 2026-05-06 13:12 | 39.93437 | 33.02606 | 35078 ft | 486 kts | 128° |
| 2026-05-06 13:12 | 39.89141 | 33.09399 | 35088 ft | 486 kts | 129° |
| 2026-05-06 13:13 | 39.84840 | 33.16206 | 35103 ft | 486 kts | 129° |
| 2026-05-06 13:13 | 39.80539 | 33.23006 | 35095 ft | 487 kts | 128° |
| 2026-05-06 13:14 | 39.76237 | 33.29800 | 35105 ft | 487 kts | 129° |
| 2026-05-06 13:14 | 39.71907 | 33.36579 | 35103 ft | 487 kts | 129° |
| 2026-05-06 13:15 | 39.67617 | 33.43303 | 35103 ft | 487 kts | 129° |
| 2026-05-06 13:15 | 39.63299 | 33.50076 | 35104 ft | 487 kts | 129° |
| 2026-05-06 13:16 | 39.58970 | 33.56829 | 35102 ft | 487 kts | 129° |
| 2026-05-06 13:16 | 39.54701 | 33.63652 | 35105 ft | 487 kts | 128° |
| 2026-05-06 13:17 | 39.50466 | 33.70512 | 35127 ft | 488 kts | 128° |
| 2026-05-06 13:17 | 39.46208 | 33.77360 | 35124 ft | 488 kts | 128° |
| 2026-05-06 13:18 | 39.41883 | 33.84124 | 35124 ft | 488 kts | 129° |
| 2026-05-06 13:18 | 39.37538 | 33.90863 | 35119 ft | 488 kts | 129° |
| 2026-05-06 13:19 | 39.33196 | 33.97600 | 35128 ft | 488 kts | 129° |
| 2026-05-06 13:19 | 39.28847 | 34.04345 | 35126 ft | 487 kts | 129° |
| 2026-05-06 13:20 | 39.24502 | 34.11055 | 35108 ft | 487 kts | 129° |
| 2026-05-06 13:20 | 39.20160 | 34.17758 | 35105 ft | 487 kts | 130° |
| 2026-05-06 13:21 | 39.15827 | 34.24395 | 35117 ft | 487 kts | 130° |
| 2026-05-06 13:21 | 39.11807 | 34.31406 | 35109 ft | 487 kts | 121° |
| 2026-05-06 13:22 | 39.07725 | 34.38428 | 35102 ft | 487 kts | 130° |
| 2026-05-06 13:22 | 39.03378 | 34.45122 | 35104 ft | 488 kts | 130° |
| 2026-05-06 13:23 | 38.99060 | 34.51779 | 35109 ft | 488 kts | 130° |
| 2026-05-06 13:23 | 38.94706 | 34.58466 | 35109 ft | 487 kts | 130° |
| 2026-05-06 13:24 | 38.90357 | 34.65148 | 35116 ft | 487 kts | 130° |
| 2026-05-06 13:24 | 38.86014 | 34.71821 | 35117 ft | 487 kts | 130° |
| 2026-05-06 13:25 | 38.81655 | 34.78482 | 35095 ft | 487 kts | 131° |
| 2026-05-06 13:25 | 38.77300 | 34.85128 | 35087 ft | 487 kts | 131° |
| 2026-05-06 13:26 | 38.72939 | 34.91769 | 35094 ft | 487 kts | 131° |
| 2026-05-06 13:26 | 38.68569 | 34.98400 | 35091 ft | 487 kts | 131° |
| 2026-05-06 13:27 | 38.64206 | 35.05035 | 35088 ft | 487 kts | 131° |
| 2026-05-06 13:27 | 38.59826 | 35.11647 | 35084 ft | 487 kts | 131° |
| 2026-05-06 13:28 | 38.55444 | 35.18262 | 35079 ft | 487 kts | 131° |
| 2026-05-06 13:28 | 38.51091 | 35.24810 | 35072 ft | 487 kts | 132° |
| 2026-05-06 13:29 | 38.46628 | 35.31320 | 35079 ft | 486 kts | 133° |
| 2026-05-06 13:29 | 38.42166 | 35.37818 | 35055 ft | 486 kts | 133° |
| 2026-05-06 13:30 | 38.37712 | 35.44320 | 35059 ft | 487 kts | 133° |
| 2026-05-06 13:30 | 38.33267 | 35.50794 | 34786 ft | 482 kts | 133° |
| 2026-05-06 13:30 | 38.31055 | 35.54003 | 34551 ft | 480 kts | 133° |
| 2026-05-06 13:31 | 38.28855 | 35.57198 | 34307 ft | 480 kts | 133° |
| 2026-05-06 13:31 | 38.26655 | 35.60397 | 34080 ft | 481 kts | 133° |
| 2026-05-06 13:31 | 38.24446 | 35.63589 | 33824 ft | 481 kts | 133° |
| 2026-05-06 13:31 | 38.22241 | 35.66791 | 33537 ft | 482 kts | 133° |
| 2026-05-06 13:32 | 38.20026 | 35.70000 | 33265 ft | 482 kts | 133° |
| 2026-05-06 13:32 | 38.17803 | 35.73191 | 33001 ft | 483 kts | 133° |
| 2026-05-06 13:32 | 38.15572 | 35.76389 | 32742 ft | 483 kts | 134° |
| 2026-05-06 13:32 | 38.13347 | 35.79603 | 32480 ft | 484 kts | 133° |
| 2026-05-06 13:33 | 38.11132 | 35.82807 | 32215 ft | 482 kts | 134° |
| 2026-05-06 13:33 | 38.08920 | 35.85992 | 31966 ft | 480 kts | 134° |
| 2026-05-06 13:33 | 38.06712 | 35.89163 | 31706 ft | 479 kts | 134° |
| 2026-05-06 13:33 | 38.04513 | 35.92322 | 31410 ft | 475 kts | 133° |
| 2026-05-06 13:34 | 38.02338 | 35.95449 | 30858 ft | 472 kts | 133° |
| 2026-05-06 13:34 | 38.00170 | 35.98550 | 30306 ft | 468 kts | 133° |
| 2026-05-06 13:34 | 37.98013 | 36.01637 | 29710 ft | 465 kts | 133° |
| 2026-05-06 13:34 | 37.95884 | 36.04690 | 29181 ft | 460 kts | 133° |
| 2026-05-06 13:35 | 37.93773 | 36.07713 | 28638 ft | 455 kts | 133° |
| 2026-05-06 13:35 | 37.91677 | 36.10694 | 28109 ft | 451 kts | 133° |
| 2026-05-06 13:35 | 37.89603 | 36.13649 | 27589 ft | 447 kts | 133° |
| 2026-05-06 13:35 | 37.87546 | 36.16580 | 27079 ft | 443 kts | 133° |
| 2026-05-06 13:36 | 37.85505 | 36.19485 | 26556 ft | 440 kts | 133° |
| 2026-05-06 13:36 | 37.83478 | 36.22374 | 26051 ft | 437 kts | 133° |
| 2026-05-06 13:36 | 37.81472 | 36.25237 | 25556 ft | 434 kts | 133° |
| 2026-05-06 13:36 | 37.79480 | 36.28088 | 25049 ft | 430 kts | 133° |
| 2026-05-06 13:37 | 37.77502 | 36.30906 | 24554 ft | 426 kts | 134° |
| 2026-05-06 13:37 | 37.75535 | 36.33692 | 24070 ft | 423 kts | 134° |
| 2026-05-06 13:37 | 37.73582 | 36.36463 | 23549 ft | 422 kts | 134° |
| 2026-05-06 13:37 | 37.71638 | 36.39218 | 23029 ft | 419 kts | 134° |
| 2026-05-06 13:38 | 37.69709 | 36.41948 | 22562 ft | 414 kts | 134° |
| 2026-05-06 13:38 | 37.67809 | 36.44643 | 22086 ft | 409 kts | 134° |
| 2026-05-06 13:38 | 37.65925 | 36.47313 | 21606 ft | 405 kts | 133° |
| 2026-05-06 13:38 | 37.64690 | 36.49070 | 21305 ft | 403 kts | 133° |
| 2026-05-06 13:39 | 37.62831 | 36.51706 | 20820 ft | 401 kts | 134° |
| 2026-05-06 13:39 | 37.60981 | 36.54317 | 20349 ft | 398 kts | 134° |
| 2026-05-06 13:39 | 37.59140 | 36.56913 | 19865 ft | 396 kts | 134° |
| 2026-05-06 13:39 | 37.57311 | 36.59496 | 19390 ft | 394 kts | 134° |
| 2026-05-06 13:40 | 37.54871 | 36.62926 | 18761 ft | 391 kts | 134° |
| 2026-05-06 13:40 | 37.53671 | 36.64615 | 18453 ft | 390 kts | 134° |
| 2026-05-06 13:40 | 37.51892 | 36.67185 | 17941 ft | 388 kts | 129° |
| 2026-05-06 13:40 | 37.50472 | 36.70063 | 17493 ft | 387 kts | 116° |
| 2026-05-06 13:41 | 37.49548 | 36.73223 | 17052 ft | 384 kts | 105° |
| 2026-05-06 13:41 | 37.48903 | 36.76468 | 16603 ft | 381 kts | 104° |
| 2026-05-06 13:41 | 37.48283 | 36.79695 | 16168 ft | 377 kts | 104° |
| 2026-05-06 13:41 | 37.47660 | 36.82885 | 15731 ft | 374 kts | 104° |
| 2026-05-06 13:42 | 37.47038 | 36.86060 | 15245 ft | 372 kts | 104° |
| 2026-05-06 13:42 | 37.46420 | 36.89206 | 14844 ft | 369 kts | 104° |
| 2026-05-06 13:42 | 37.45807 | 36.92331 | 14427 ft | 366 kts | 104° |
| 2026-05-06 13:42 | 37.45203 | 36.95403 | 14223 ft | 357 kts | 104° |
| 2026-05-06 13:43 | 37.44613 | 36.98388 | 14091 ft | 346 kts | 104° |
| 2026-05-06 13:43 | 37.44042 | 37.01284 | 13941 ft | 336 kts | 104° |
| 2026-05-06 13:43 | 37.43487 | 37.04103 | 13778 ft | 328 kts | 104° |
| 2026-05-06 13:43 | 37.42939 | 37.06864 | 13490 ft | 324 kts | 104° |
| 2026-05-06 13:44 | 37.42400 | 37.09602 | 13128 ft | 321 kts | 104° |
| 2026-05-06 13:44 | 37.41860 | 37.12310 | 12710 ft | 317 kts | 105° |
| 2026-05-06 13:44 | 37.41321 | 37.14997 | 12051 ft | 315 kts | 105° |
| 2026-05-06 13:44 | 37.40790 | 37.17652 | 11447 ft | 311 kts | 105° |
| 2026-05-06 13:45 | 37.40262 | 37.20282 | 10847 ft | 309 kts | 105° |
| 2026-05-06 13:45 | 37.39225 | 37.25460 | 10043 ft | 299 kts | 105° |
| 2026-05-06 13:45 | 37.38832 | 37.27963 | 9988 ft | 286 kts | 92° |
| 2026-05-06 13:46 | 37.39145 | 37.30355 | 9983 ft | 273 kts | 68° |
| 2026-05-06 13:46 | 37.40182 | 37.32322 | 9666 ft | 272 kts | 41° |
| 2026-05-06 13:46 | 37.41716 | 37.33680 | 9345 ft | 269 kts | 30° |
| 2026-05-06 13:46 | 37.43274 | 37.34896 | 9029 ft | 263 kts | 30° |
| 2026-05-06 13:47 | 37.44815 | 37.36100 | 8724 ft | 252 kts | 30° |
| 2026-05-06 13:47 | 37.46284 | 37.37261 | 8439 ft | 248 kts | 31° |
| 2026-05-06 13:47 | 37.47759 | 37.38384 | 8139 ft | 247 kts | 22° |
| 2026-05-06 13:47 | 37.49386 | 37.38754 | 8016 ft | 232 kts | 348° |
| 2026-05-06 13:48 | 37.50839 | 37.38081 | 7803 ft | 221 kts | 319° |
| 2026-05-06 13:48 | 37.51815 | 37.36663 | 7506 ft | 212 kts | 300° |
| 2026-05-06 13:48 | 37.52584 | 37.35113 | 7283 ft | 205 kts | 300° |
| 2026-05-06 13:48 | 37.53328 | 37.33618 | 7028 ft | 198 kts | 300° |
| 2026-05-06 13:49 | 37.54057 | 37.32165 | 6769 ft | 194 kts | 300° |
| 2026-05-06 13:49 | 37.54777 | 37.30739 | 6551 ft | 192 kts | 300° |
| 2026-05-06 13:49 | 37.55479 | 37.29343 | 6422 ft | 190 kts | 300° |
| 2026-05-06 13:49 | 37.56148 | 37.27908 | 6410 ft | 190 kts | 291° |
| 2026-05-06 13:50 | 37.56527 | 37.26315 | 6184 ft | 190 kts | 280° |
| 2026-05-06 13:50 | 37.56794 | 37.24695 | 5900 ft | 188 kts | 280° |
| 2026-05-06 13:50 | 37.57059 | 37.23090 | 5665 ft | 183 kts | 280° |
| 2026-05-06 13:50 | 37.57308 | 37.21595 | 5606 ft | 163 kts | 281° |
| 2026-05-06 13:51 | 37.57529 | 37.20283 | 5608 ft | 145 kts | 281° |
| 2026-05-06 13:51 | 37.57732 | 37.19078 | 5599 ft | 137 kts | 281° |
| 2026-05-06 13:51 | 37.57925 | 37.17907 | 5605 ft | 135 kts | 278° |
| 2026-05-06 13:51 | 37.57859 | 37.16727 | 5513 ft | 138 kts | 258° |
| 2026-05-06 13:52 | 37.57645 | 37.15560 | 5258 ft | 135 kts | 257° |
| 2026-05-06 13:52 | 37.57433 | 37.14412 | 5037 ft | 136 kts | 257° |
| 2026-05-06 13:52 | 37.57221 | 37.13252 | 4837 ft | 135 kts | 257° |
| 2026-05-06 13:52 | 37.57014 | 37.12111 | 4623 ft | 133 kts | 258° |
| 2026-05-06 13:53 | 37.56809 | 37.10989 | 4412 ft | 130 kts | 257° |
| 2026-05-06 13:53 | 37.56602 | 37.09858 | 4217 ft | 133 kts | 258° |
| 2026-05-06 13:53 | 37.56399 | 37.08739 | 4008 ft | 132 kts | 257° |
| 2026-05-06 13:53 | 37.56192 | 37.07597 | 3808 ft | 131 kts | 258° |
| 2026-05-06 13:54 | 37.55989 | 37.06479 | 3580 ft | 131 kts | 259° |
| 2026-05-06 13:54 | 37.55785 | 37.05353 | 3391 ft | 132 kts | 259° |
| 2026-05-06 13:54 | 37.55589 | 37.04228 | 3143 ft | 134 kts | 261° |
| 2026-05-06 13:54 | 37.55424 | 37.03066 | 2840 ft | 136 kts | 262° |
| 2026-05-06 13:55 | 37.55253 | 37.01896 | 2681 ft | 136 kts | 258° |
| 2026-05-06 13:55 | 37.55019 | 37.00747 | 2542 ft | 135 kts | 258° |
| 2026-05-06 13:55 | 37.54764 | 36.99610 | 2373 ft | 134 kts | 256° |
| 2026-05-06 13:55 | 37.54534 | 36.98488 | 2151 ft | 130 kts | 257° |
| 2026-05-06 13:56 | 37.54307 | 36.97397 | 1945 ft | 128 kts | 257° |
| 2026-05-06 13:56 | 37.54081 | 36.96317 | 1764 ft | 127 kts | 257° |
| 2026-05-06 13:56 | 37.53878 | 36.95345 | 1731 ft | 95 kts | 254° |
| 2026-05-06 13:56 | 37.53751 | 36.94747 | 1718 ft | 46 kts | 255° |
| 2026-05-06 13:57 | 37.53697 | 36.94545 | 1712 ft | 18 kts | 244° |
| 2026-05-06 13:57 | 37.53683 | 36.94474 | 1711 ft | 4 kts | 302° |
| 2026-05-06 13:57 | 37.53713 | 36.94466 | 1711 ft | 10 kts | 10° |
| 2026-05-06 13:57 | 37.53722 | 36.94543 | 1712 ft | 15 kts | 86° |
| 2026-05-06 13:58 | 37.53734 | 36.94659 | 1715 ft | 12 kts | 78° |
| 2026-05-06 13:58 | 37.53758 | 36.94784 | 1717 ft | 21 kts | 75° |
| 2026-05-06 13:58 | 37.53794 | 36.94952 | 1722 ft | 19 kts | 75° |
| 2026-05-06 13:58 | 37.53824 | 36.95096 | 1726 ft | 15 kts | 75° |
| 2026-05-06 13:59 | 37.53848 | 36.95208 | 1729 ft | 12 kts | 75° |
| 2026-05-06 13:59 | 37.53869 | 36.95301 | 1730 ft | 11 kts | 75° |
| 2026-05-06 13:59 | 37.53892 | 36.95409 | 1732 ft | 13 kts | 76° |
| 2026-05-06 13:59 | 37.53911 | 36.95505 | 1730 ft | 10 kts | 76° |
| 2026-05-06 14:00 | 37.53934 | 36.95615 | 1734 ft | 17 kts | 75° |
| 2026-05-06 14:00 | 37.53960 | 36.95738 | 1731 ft | 7 kts | 75° |
| 2026-05-06 14:00 | 37.53957 | 36.95799 | 1731 ft | 6 kts | 111° |
| 2026-05-06 14:00 | 37.53882 | 36.95836 | 1726 ft | 16 kts | 165° |
| 2026-05-06 14:01 | 37.53792 | 36.95866 | 1725 ft | 9 kts | 166° |
| 2026-05-06 14:01 | 37.53743 | 36.95881 | 1725 ft | 4 kts | 165° |
| 2026-05-06 14:01 | 37.53725 | 36.95887 | 1725 ft | 1 kts | 165° |
| 2026-05-06 14:01 | 37.53721 | 36.95888 | 1725 ft | 0 kts | 165° |